sensor_id;sensor_type;location;lat;lon;timestamp;P1;durP1;ratioP1;P2;durP2;ratioP2
26014;SDS011;13793;55.388;37.844;2022-11-06T00:00:09;13.70;;;9.67;;
26014;SDS011;13793;55.388;37.844;2022-11-06T00:02:40;11.73;;;9.20;;
26014;SDS011;13793;55.388;37.844;2022-11-06T00:05:11;12.33;;;9.40;;
26014;SDS011;13793;55.388;37.844;2022-11-06T00:08:00;12.53;;;9.40;;
26014;SDS011;13793;55.388;37.844;2022-11-06T00:10:30;13.17;;;9.40;;
26014;SDS011;13793;55.388;37.844;2022-11-06T00:13:01;11.53;;;9.20;;
26014;SDS011;13793;55.388;37.844;2022-11-06T00:15:32;12.33;;;8.90;;
26014;SDS011;13793;55.388;37.844;2022-11-06T00:18:03;12.17;;;9.73;;
26014;SDS011;13793;55.388;37.844;2022-11-06T00:20:35;12.17;;;9.13;;
26014;SDS011;13793;55.388;37.844;2022-11-06T00:23:05;13.53;;;10.13;;
26014;SDS011;13793;55.388;37.844;2022-11-06T00:25:38;11.80;;;10.03;;
26014;SDS011;13793;55.388;37.844;2022-11-06T00:28:08;12.70;;;9.13;;
26014;SDS011;13793;55.388;37.844;2022-11-06T00:30:39;12.97;;;9.50;;
26014;SDS011;13793;55.388;37.844;2022-11-06T00:33:09;12.77;;;10.03;;
26014;SDS011;13793;55.388;37.844;2022-11-06T00:35:40;12.17;;;9.80;;
26014;SDS011;13793;55.388;37.844;2022-11-06T00:38:10;13.20;;;9.70;;
26014;SDS011;13793;55.388;37.844;2022-11-06T00:40:41;13.23;;;10.37;;
26014;SDS011;13793;55.388;37.844;2022-11-06T00:43:11;14.03;;;10.20;;
26014;SDS011;13793;55.388;37.844;2022-11-06T00:45:42;12.17;;;10.10;;
26014;SDS011;13793;55.388;37.844;2022-11-06T00:48:13;13.37;;;10.10;;
26014;SDS011;13793;55.388;37.844;2022-11-06T00:50:43;15.57;;;11.00;;
26014;SDS011;13793;55.388;37.844;2022-11-06T00:53:14;14.43;;;10.83;;
26014;SDS011;13793;55.388;37.844;2022-11-06T00:55:44;12.97;;;10.67;;
26014;SDS011;13793;55.388;37.844;2022-11-06T00:58:15;15.67;;;11.17;;
26014;SDS011;13793;55.388;37.844;2022-11-06T01:00:46;15.17;;;11.70;;
26014;SDS011;13793;55.388;37.844;2022-11-06T01:03:16;13.63;;;10.73;;
26014;SDS011;13793;55.388;37.844;2022-11-06T01:05:47;13.57;;;10.33;;
26014;SDS011;13793;55.388;37.844;2022-11-06T01:08:17;15.50;;;10.73;;
26014;SDS011;13793;55.388;37.844;2022-11-06T01:10:48;13.77;;;11.63;;
26014;SDS011;13793;55.388;37.844;2022-11-06T01:13:18;17.03;;;12.00;;
26014;SDS011;13793;55.388;37.844;2022-11-06T01:15:49;14.13;;;11.13;;
26014;SDS011;13793;55.388;37.844;2022-11-06T01:18:20;15.77;;;11.57;;
26014;SDS011;13793;55.388;37.844;2022-11-06T01:20:50;14.53;;;11.17;;
26014;SDS011;13793;55.388;37.844;2022-11-06T01:23:21;14.33;;;11.30;;
26014;SDS011;13793;55.388;37.844;2022-11-06T01:25:55;13.47;;;11.23;;
26014;SDS011;13793;55.388;37.844;2022-11-06T01:28:27;14.27;;;11.50;;
26014;SDS011;13793;55.388;37.844;2022-11-06T01:31:04;12.63;;;9.70;;
26014;SDS011;13793;55.388;37.844;2022-11-06T01:33:36;13.57;;;10.97;;
26014;SDS011;13793;55.388;37.844;2022-11-06T01:36:10;13.57;;;10.23;;
26014;SDS011;13793;55.388;37.844;2022-11-06T01:38:45;12.00;;;9.00;;
26014;SDS011;13793;55.388;37.844;2022-11-06T01:41:17;14.13;;;9.73;;
26014;SDS011;13793;55.388;37.844;2022-11-06T01:43:56;12.70;;;9.57;;
26014;SDS011;13793;55.388;37.844;2022-11-06T01:46:32;12.40;;;9.27;;
26014;SDS011;13793;55.388;37.844;2022-11-06T01:49:05;14.10;;;9.63;;
26014;SDS011;13793;55.388;37.844;2022-11-06T01:51:38;11.83;;;9.33;;
26014;SDS011;13793;55.388;37.844;2022-11-06T01:54:17;11.07;;;9.63;;
26014;SDS011;13793;55.388;37.844;2022-11-06T01:56:48;12.87;;;9.40;;
26014;SDS011;13793;55.388;37.844;2022-11-06T01:59:21;11.30;;;9.23;;
26014;SDS011;13793;55.388;37.844;2022-11-06T02:01:53;11.73;;;9.63;;
26014;SDS011;13793;55.388;37.844;2022-11-06T02:04:24;11.83;;;9.40;;
26014;SDS011;13793;55.388;37.844;2022-11-06T02:06:57;13.87;;;9.83;;
26014;SDS011;13793;55.388;37.844;2022-11-06T02:09:29;12.17;;;9.83;;
26014;SDS011;13793;55.388;37.844;2022-11-06T02:15:02;13.30;;;9.93;;
26014;SDS011;13793;55.388;37.844;2022-11-06T02:20:40;12.33;;;9.47;;
26014;SDS011;13793;55.388;37.844;2022-11-06T02:28:40;11.93;;;9.47;;
26014;SDS011;13793;55.388;37.844;2022-11-06T02:31:14;11.50;;;9.20;;
26014;SDS011;13793;55.388;37.844;2022-11-06T02:33:56;15.33;;;9.90;;
26014;SDS011;13793;55.388;37.844;2022-11-06T02:36:29;12.10;;;9.03;;
26014;SDS011;13793;55.388;37.844;2022-11-06T02:39:05;12.47;;;10.30;;
26014;SDS011;13793;55.388;37.844;2022-11-06T02:41:39;11.17;;;9.43;;
26014;SDS011;13793;55.388;37.844;2022-11-06T02:44:12;12.47;;;10.37;;
26014;SDS011;13793;55.388;37.844;2022-11-06T02:46:49;15.10;;;10.40;;
26014;SDS011;13793;55.388;37.844;2022-11-06T02:49:19;12.53;;;10.50;;
26014;SDS011;13793;55.388;37.844;2022-11-06T02:51:53;14.23;;;11.27;;
26014;SDS011;13793;55.388;37.844;2022-11-06T02:54:25;13.40;;;10.80;;
26014;SDS011;13793;55.388;37.844;2022-11-06T02:56:56;14.90;;;11.17;;
26014;SDS011;13793;55.388;37.844;2022-11-06T02:59:30;14.60;;;10.93;;
26014;SDS011;13793;55.388;37.844;2022-11-06T03:02:04;16.30;;;11.80;;
26014;SDS011;13793;55.388;37.844;2022-11-06T03:04:39;15.63;;;11.90;;
26014;SDS011;13793;55.388;37.844;2022-11-06T03:07:32;16.47;;;12.27;;
26014;SDS011;13793;55.388;37.844;2022-11-06T03:10:03;16.03;;;11.97;;
26014;SDS011;13793;55.388;37.844;2022-11-06T03:12:42;15.50;;;12.00;;
26014;SDS011;13793;55.388;37.844;2022-11-06T03:15:19;13.80;;;11.57;;
26014;SDS011;13793;55.388;37.844;2022-11-06T03:20:49;18.00;;;12.53;;
26014;SDS011;13793;55.388;37.844;2022-11-06T03:23:22;14.97;;;11.67;;
26014;SDS011;13793;55.388;37.844;2022-11-06T03:25:57;12.97;;;10.57;;
26014;SDS011;13793;55.388;37.844;2022-11-06T03:28:49;14.87;;;11.00;;
26014;SDS011;13793;55.388;37.844;2022-11-06T03:31:17;14.97;;;11.87;;
26014;SDS011;13793;55.388;37.844;2022-11-06T03:33:51;15.37;;;11.83;;
26014;SDS011;13793;55.388;37.844;2022-11-06T03:36:33;14.50;;;11.83;;
26014;SDS011;13793;55.388;37.844;2022-11-06T03:39:09;16.97;;;11.73;;
26014;SDS011;13793;55.388;37.844;2022-11-06T03:41:58;13.78;;;11.50;;
26014;SDS011;13793;55.388;37.844;2022-11-06T03:44:30;15.03;;;11.43;;
26014;SDS011;13793;55.388;37.844;2022-11-06T03:47:50;14.43;;;11.33;;
26014;SDS011;13793;55.388;37.844;2022-11-06T03:49:40;14.07;;;10.73;;
26014;SDS011;13793;55.388;37.844;2022-11-06T03:52:15;14.70;;;11.23;;
26014;SDS011;13793;55.388;37.844;2022-11-06T03:54:48;11.53;;;10.07;;
26014;SDS011;13793;55.388;37.844;2022-11-06T03:57:31;12.77;;;10.97;;
26014;SDS011;13793;55.388;37.844;2022-11-06T04:00:11;12.80;;;10.77;;
26014;SDS011;13793;55.388;37.844;2022-11-06T04:02:47;13.33;;;10.13;;
26014;SDS011;13793;55.388;37.844;2022-11-06T04:05:22;14.87;;;10.97;;
26014;SDS011;13793;55.388;37.844;2022-11-06T04:07:54;12.33;;;10.47;;
26014;SDS011;13793;55.388;37.844;2022-11-06T04:10:43;11.80;;;10.17;;
26014;SDS011;13793;55.388;37.844;2022-11-06T04:13:33;11.17;;;9.97;;
26014;SDS011;13793;55.388;37.844;2022-11-06T04:16:23;12.47;;;9.80;;
26014;SDS011;13793;55.388;37.844;2022-11-06T04:18:57;11.10;;;9.90;;
26014;SDS011;13793;55.388;37.844;2022-11-06T04:30:07;12.17;;;10.13;;
26014;SDS011;13793;55.388;37.844;2022-11-06T04:32:53;11.97;;;10.40;;
26014;SDS011;13793;55.388;37.844;2022-11-06T04:35:44;12.47;;;11.00;;
26014;SDS011;13793;55.388;37.844;2022-11-06T04:38:35;12.83;;;9.73;;
26014;SDS011;13793;55.388;37.844;2022-11-06T04:43:48;8.10;;;7.28;;
26014;SDS011;13793;55.388;37.844;2022-11-06T04:46:35;12.57;;;10.37;;
26014;SDS011;13793;55.388;37.844;2022-11-06T04:49:09;13.30;;;11.63;;
26014;SDS011;13793;55.388;37.844;2022-11-06T04:51:41;12.13;;;10.33;;
26014;SDS011;13793;55.388;37.844;2022-11-06T04:54:13;11.60;;;10.40;;
26014;SDS011;13793;55.388;37.844;2022-11-06T04:56:44;13.33;;;11.13;;
26014;SDS011;13793;55.388;37.844;2022-11-06T04:59:15;12.90;;;9.97;;
26014;SDS011;13793;55.388;37.844;2022-11-06T05:01:46;11.97;;;9.97;;
26014;SDS011;13793;55.388;37.844;2022-11-06T05:04:16;12.37;;;9.73;;
26014;SDS011;13793;55.388;37.844;2022-11-06T05:06:47;11.87;;;10.47;;
26014;SDS011;13793;55.388;37.844;2022-11-06T05:09:18;13.50;;;11.03;;
26014;SDS011;13793;55.388;37.844;2022-11-06T05:11:49;11.33;;;9.90;;
26014;SDS011;13793;55.388;37.844;2022-11-06T05:14:20;13.17;;;10.30;;
26014;SDS011;13793;55.388;37.844;2022-11-06T05:16:50;12.93;;;11.00;;
26014;SDS011;13793;55.388;37.844;2022-11-06T05:19:20;13.23;;;10.87;;
26014;SDS011;13793;55.388;37.844;2022-11-06T05:21:51;12.00;;;10.70;;
26014;SDS011;13793;55.388;37.844;2022-11-06T05:24:40;13.63;;;11.33;;
26014;SDS011;13793;55.388;37.844;2022-11-06T05:27:11;14.70;;;11.43;;
26014;SDS011;13793;55.388;37.844;2022-11-06T05:29:41;15.33;;;12.50;;
26014;SDS011;13793;55.388;37.844;2022-11-06T05:32:12;14.93;;;12.63;;
26014;SDS011;13793;55.388;37.844;2022-11-06T05:34:43;16.37;;;12.50;;
26014;SDS011;13793;55.388;37.844;2022-11-06T05:37:14;16.83;;;13.63;;
26014;SDS011;13793;55.388;37.844;2022-11-06T05:39:45;16.13;;;13.63;;
26014;SDS011;13793;55.388;37.844;2022-11-06T05:42:15;16.60;;;13.43;;
26014;SDS011;13793;55.388;37.844;2022-11-06T05:44:46;16.70;;;12.80;;
26014;SDS011;13793;55.388;37.844;2022-11-06T05:47:16;16.43;;;13.13;;
26014;SDS011;13793;55.388;37.844;2022-11-06T05:49:50;15.80;;;12.93;;
26014;SDS011;13793;55.388;37.844;2022-11-06T05:52:21;14.87;;;12.43;;
26014;SDS011;13793;55.388;37.844;2022-11-06T05:54:51;18.40;;;14.23;;
26014;SDS011;13793;55.388;37.844;2022-11-06T05:57:22;17.53;;;14.20;;
26014;SDS011;13793;55.388;37.844;2022-11-06T05:59:53;16.50;;;13.40;;
26014;SDS011;13793;55.388;37.844;2022-11-06T06:02:23;16.33;;;13.33;;
26014;SDS011;13793;55.388;37.844;2022-11-06T06:04:54;16.40;;;13.50;;
26014;SDS011;13793;55.388;37.844;2022-11-06T06:07:25;20.13;;;14.07;;
26014;SDS011;13793;55.388;37.844;2022-11-06T06:09:55;16.93;;;13.03;;
26014;SDS011;13793;55.388;37.844;2022-11-06T06:12:26;14.67;;;12.57;;
26014;SDS011;13793;55.388;37.844;2022-11-06T06:14:57;16.50;;;12.80;;
26014;SDS011;13793;55.388;37.844;2022-11-06T06:17:29;16.43;;;12.87;;
26014;SDS011;13793;55.388;37.844;2022-11-06T06:20:00;16.53;;;13.17;;
26014;SDS011;13793;55.388;37.844;2022-11-06T06:22:30;16.73;;;12.70;;
26014;SDS011;13793;55.388;37.844;2022-11-06T06:25:01;18.37;;;13.80;;
26014;SDS011;13793;55.388;37.844;2022-11-06T06:27:33;18.07;;;14.57;;
26014;SDS011;13793;55.388;37.844;2022-11-06T06:30:04;18.03;;;13.00;;
26014;SDS011;13793;55.388;37.844;2022-11-06T06:32:35;17.63;;;14.00;;
26014;SDS011;13793;55.388;37.844;2022-11-06T06:35:06;19.07;;;14.57;;
26014;SDS011;13793;55.388;37.844;2022-11-06T06:37:37;18.10;;;13.60;;
26014;SDS011;13793;55.388;37.844;2022-11-06T06:40:08;22.37;;;15.00;;
26014;SDS011;13793;55.388;37.844;2022-11-06T06:42:39;21.00;;;15.80;;
26014;SDS011;13793;55.388;37.844;2022-11-06T06:45:10;21.30;;;15.10;;
26014;SDS011;13793;55.388;37.844;2022-11-06T06:47:41;21.03;;;15.27;;
26014;SDS011;13793;55.388;37.844;2022-11-06T06:50:11;21.63;;;15.63;;
26014;SDS011;13793;55.388;37.844;2022-11-06T06:52:42;21.40;;;14.47;;
26014;SDS011;13793;55.388;37.844;2022-11-06T06:55:13;19.30;;;13.93;;
26014;SDS011;13793;55.388;37.844;2022-11-06T06:57:43;20.17;;;15.07;;
26014;SDS011;13793;55.388;37.844;2022-11-06T07:00:14;17.57;;;13.80;;
26014;SDS011;13793;55.388;37.844;2022-11-06T07:02:45;18.83;;;13.20;;
26014;SDS011;13793;55.388;37.844;2022-11-06T07:05:16;17.73;;;13.53;;
26014;SDS011;13793;55.388;37.844;2022-11-06T07:07:47;16.93;;;13.43;;
26014;SDS011;13793;55.388;37.844;2022-11-06T07:10:17;19.53;;;14.37;;
26014;SDS011;13793;55.388;37.844;2022-11-06T07:12:48;15.23;;;12.63;;
26014;SDS011;13793;55.388;37.844;2022-11-06T07:15:19;17.23;;;13.07;;
26014;SDS011;13793;55.388;37.844;2022-11-06T07:17:50;18.10;;;13.10;;
26014;SDS011;13793;55.388;37.844;2022-11-06T07:20:20;17.80;;;13.70;;
26014;SDS011;13793;55.388;37.844;2022-11-06T07:22:51;16.83;;;13.10;;
26014;SDS011;13793;55.388;37.844;2022-11-06T07:25:22;18.33;;;13.20;;
26014;SDS011;13793;55.388;37.844;2022-11-06T07:27:53;20.13;;;14.37;;
26014;SDS011;13793;55.388;37.844;2022-11-06T07:30:23;20.90;;;14.00;;
26014;SDS011;13793;55.388;37.844;2022-11-06T07:32:54;19.50;;;13.97;;
26014;SDS011;13793;55.388;37.844;2022-11-06T07:35:25;23.27;;;16.57;;
26014;SDS011;13793;55.388;37.844;2022-11-06T07:38:01;33.40;;;18.73;;
26014;SDS011;13793;55.388;37.844;2022-11-06T07:40:34;20.87;;;15.90;;
26014;SDS011;13793;55.388;37.844;2022-11-06T07:43:05;22.17;;;16.33;;
26014;SDS011;13793;55.388;37.844;2022-11-06T07:45:37;24.20;;;15.80;;
26014;SDS011;13793;55.388;37.844;2022-11-06T07:48:08;26.60;;;17.23;;
26014;SDS011;13793;55.388;37.844;2022-11-06T07:50:39;25.33;;;16.40;;
26014;SDS011;13793;55.388;37.844;2022-11-06T07:53:10;27.03;;;17.87;;
26014;SDS011;13793;55.388;37.844;2022-11-06T07:55:46;22.73;;;16.57;;
26014;SDS011;13793;55.388;37.844;2022-11-06T07:58:19;26.70;;;17.20;;
26014;SDS011;13793;55.388;37.844;2022-11-06T08:00:51;25.50;;;17.23;;
26014;SDS011;13793;55.388;37.844;2022-11-06T08:03:23;22.17;;;15.97;;
26014;SDS011;13793;55.388;37.844;2022-11-06T08:05:57;24.17;;;16.93;;
26014;SDS011;13793;55.388;37.844;2022-11-06T08:08:27;21.73;;;16.40;;
26014;SDS011;13793;55.388;37.844;2022-11-06T08:11:02;22.37;;;16.03;;
26014;SDS011;13793;55.388;37.844;2022-11-06T08:13:33;22.93;;;17.10;;
26014;SDS011;13793;55.388;37.844;2022-11-06T08:16:05;26.73;;;18.17;;
26014;SDS011;13793;55.388;37.844;2022-11-06T08:18:37;25.90;;;17.23;;
26014;SDS011;13793;55.388;37.844;2022-11-06T08:21:08;27.83;;;18.60;;
26014;SDS011;13793;55.388;37.844;2022-11-06T08:23:38;27.60;;;18.37;;
26014;SDS011;13793;55.388;37.844;2022-11-06T08:26:09;24.93;;;18.23;;
26014;SDS011;13793;55.388;37.844;2022-11-06T08:28:40;26.87;;;17.70;;
26014;SDS011;13793;55.388;37.844;2022-11-06T08:31:10;24.03;;;17.13;;
26014;SDS011;13793;55.388;37.844;2022-11-06T08:33:41;24.70;;;16.50;;
26014;SDS011;13793;55.388;37.844;2022-11-06T08:36:11;25.13;;;17.40;;
26014;SDS011;13793;55.388;37.844;2022-11-06T08:38:42;23.60;;;17.00;;
26014;SDS011;13793;55.388;37.844;2022-11-06T08:41:22;23.90;;;17.27;;
26014;SDS011;13793;55.388;37.844;2022-11-06T08:43:49;27.33;;;16.77;;
26014;SDS011;13793;55.388;37.844;2022-11-06T08:46:21;26.37;;;17.37;;
26014;SDS011;13793;55.388;37.844;2022-11-06T08:48:51;32.60;;;19.70;;
26014;SDS011;13793;55.388;37.844;2022-11-06T08:51:22;24.37;;;17.30;;
26014;SDS011;13793;55.388;37.844;2022-11-06T08:53:53;24.33;;;16.23;;
26014;SDS011;13793;55.388;37.844;2022-11-06T08:56:23;27.40;;;17.50;;
26014;SDS011;13793;55.388;37.844;2022-11-06T08:58:53;30.70;;;19.77;;
26014;SDS011;13793;55.388;37.844;2022-11-06T09:01:24;28.27;;;17.80;;
26014;SDS011;13793;55.388;37.844;2022-11-06T09:03:55;24.20;;;16.70;;
26014;SDS011;13793;55.388;37.844;2022-11-06T09:06:26;22.43;;;16.97;;
26014;SDS011;13793;55.388;37.844;2022-11-06T09:08:57;24.70;;;17.33;;
26014;SDS011;13793;55.388;37.844;2022-11-06T09:11:27;23.57;;;16.93;;
26014;SDS011;13793;55.388;37.844;2022-11-06T09:13:58;23.60;;;16.67;;
26014;SDS011;13793;55.388;37.844;2022-11-06T09:16:29;22.37;;;16.47;;
26014;SDS011;13793;55.388;37.844;2022-11-06T09:18:59;21.83;;;16.00;;
26014;SDS011;13793;55.388;37.844;2022-11-06T09:21:30;26.27;;;16.83;;
26014;SDS011;13793;55.388;37.844;2022-11-06T09:24:00;33.60;;;20.43;;
26014;SDS011;13793;55.388;37.844;2022-11-06T09:26:31;42.07;;;23.60;;
26014;SDS011;13793;55.388;37.844;2022-11-06T09:29:01;30.43;;;19.90;;
26014;SDS011;13793;55.388;37.844;2022-11-06T09:31:32;26.77;;;18.60;;
26014;SDS011;13793;55.388;37.844;2022-11-06T09:34:03;23.43;;;17.43;;
26014;SDS011;13793;55.388;37.844;2022-11-06T09:36:34;27.90;;;19.43;;
26014;SDS011;13793;55.388;37.844;2022-11-06T09:39:05;24.70;;;18.23;;
26014;SDS011;13793;55.388;37.844;2022-11-06T09:41:52;28.77;;;20.00;;
26014;SDS011;13793;55.388;37.844;2022-11-06T09:44:37;25.17;;;17.90;;
26014;SDS011;13793;55.388;37.844;2022-11-06T09:47:20;24.13;;;16.83;;
26014;SDS011;13793;55.388;37.844;2022-11-06T09:49:52;32.77;;;19.13;;
26014;SDS011;13793;55.388;37.844;2022-11-06T09:55:17;73.47;;;36.90;;
26014;SDS011;13793;55.388;37.844;2022-11-06T09:57:53;27.03;;;18.20;;
26014;SDS011;13793;55.388;37.844;2022-11-06T10:00:24;26.77;;;18.73;;
26014;SDS011;13793;55.388;37.844;2022-11-06T10:05:46;35.37;;;24.60;;
26014;SDS011;13793;55.388;37.844;2022-11-06T10:08:21;31.13;;;19.83;;
26014;SDS011;13793;55.388;37.844;2022-11-06T10:11:01;27.20;;;19.77;;
26014;SDS011;13793;55.388;37.844;2022-11-06T10:16:29;34.83;;;23.87;;
26014;SDS011;13793;55.388;37.844;2022-11-06T10:19:07;30.30;;;20.30;;
26014;SDS011;13793;55.388;37.844;2022-11-06T10:21:42;31.00;;;21.73;;
26014;SDS011;13793;55.388;37.844;2022-11-06T10:24:23;33.93;;;24.60;;
26014;SDS011;13793;55.388;37.844;2022-11-06T10:27:26;32.37;;;22.87;;
26014;SDS011;13793;55.388;37.844;2022-11-06T10:30:00;36.10;;;25.20;;
26014;SDS011;13793;55.388;37.844;2022-11-06T10:35:36;32.27;;;21.63;;
26014;SDS011;13793;55.388;37.844;2022-11-06T10:38:14;33.20;;;23.67;;
26014;SDS011;13793;55.388;37.844;2022-11-06T10:43:26;35.37;;;24.07;;
26014;SDS011;13793;55.388;37.844;2022-11-06T10:48:42;42.30;;;28.53;;
26014;SDS011;13793;55.388;37.844;2022-11-06T10:56:53;34.80;;;24.10;;
26014;SDS011;13793;55.388;37.844;2022-11-06T10:59:26;33.20;;;24.47;;
26014;SDS011;13793;55.388;37.844;2022-11-06T11:01:57;25.23;;;17.97;;
26014;SDS011;13793;55.388;37.844;2022-11-06T11:04:29;27.10;;;18.20;;
26014;SDS011;13793;55.388;37.844;2022-11-06T11:07:08;27.83;;;18.77;;
26014;SDS011;13793;55.388;37.844;2022-11-06T11:09:36;25.33;;;17.57;;
26014;SDS011;13793;55.388;37.844;2022-11-06T11:12:17;23.97;;;17.13;;
26014;SDS011;13793;55.388;37.844;2022-11-06T11:15:12;19.93;;;14.47;;
26014;SDS011;13793;55.388;37.844;2022-11-06T11:18:06;21.10;;;14.53;;
26014;SDS011;13793;55.388;37.844;2022-11-06T11:20:43;19.83;;;13.67;;
26014;SDS011;13793;55.388;37.844;2022-11-06T11:23:15;24.43;;;14.93;;
26014;SDS011;13793;55.388;37.844;2022-11-06T11:25:49;21.00;;;15.27;;
26014;SDS011;13793;55.388;37.844;2022-11-06T11:28:31;23.10;;;15.07;;
26014;SDS011;13793;55.388;37.844;2022-11-06T11:31:04;29.53;;;20.73;;
26014;SDS011;13793;55.388;37.844;2022-11-06T11:33:46;21.77;;;13.97;;
26014;SDS011;13793;55.388;37.844;2022-11-06T11:36:20;17.63;;;13.00;;
26014;SDS011;13793;55.388;37.844;2022-11-06T11:38:50;22.33;;;15.07;;
26014;SDS011;13793;55.388;37.844;2022-11-06T11:41:22;27.77;;;16.23;;
26014;SDS011;13793;55.388;37.844;2022-11-06T11:43:57;41.53;;;27.67;;
26014;SDS011;13793;55.388;37.844;2022-11-06T11:46:29;24.33;;;16.17;;
26014;SDS011;13793;55.388;37.844;2022-11-06T11:49:00;22.90;;;16.30;;
26014;SDS011;13793;55.388;37.844;2022-11-06T11:51:36;20.30;;;14.13;;
26014;SDS011;13793;55.388;37.844;2022-11-06T11:54:16;23.93;;;16.77;;
26014;SDS011;13793;55.388;37.844;2022-11-06T11:59:25;22.10;;;14.77;;
26014;SDS011;13793;55.388;37.844;2022-11-06T12:02:00;22.20;;;15.50;;
26014;SDS011;13793;55.388;37.844;2022-11-06T12:04:30;20.83;;;14.60;;
26014;SDS011;13793;55.388;37.844;2022-11-06T12:07:06;25.10;;;15.60;;
26014;SDS011;13793;55.388;37.844;2022-11-06T12:09:45;25.67;;;16.97;;
26014;SDS011;13793;55.388;37.844;2022-11-06T12:12:22;24.17;;;16.93;;
26014;SDS011;13793;55.388;37.844;2022-11-06T12:17:55;38.03;;;23.37;;
26014;SDS011;13793;55.388;37.844;2022-11-06T12:20:46;32.93;;;21.40;;
26014;SDS011;13793;55.388;37.844;2022-11-06T12:23:15;30.53;;;21.27;;
26014;SDS011;13793;55.388;37.844;2022-11-06T12:25:53;38.70;;;23.43;;
26014;SDS011;13793;55.388;37.844;2022-11-06T12:28:21;25.43;;;17.17;;
26014;SDS011;13793;55.388;37.844;2022-11-06T12:30:56;38.00;;;24.87;;
26014;SDS011;13793;55.388;37.844;2022-11-06T12:33:26;34.67;;;19.70;;
26014;SDS011;13793;55.388;37.844;2022-11-06T12:36:04;29.17;;;17.63;;
26014;SDS011;13793;55.388;37.844;2022-11-06T12:38:47;21.03;;;15.23;;
26014;SDS011;13793;55.388;37.844;2022-11-06T12:41:24;19.00;;;14.67;;
26014;SDS011;13793;55.388;37.844;2022-11-06T12:43:59;19.87;;;14.53;;
26014;SDS011;13793;55.388;37.844;2022-11-06T12:49:19;23.20;;;14.73;;
26014;SDS011;13793;55.388;37.844;2022-11-06T12:57:41;23.47;;;15.67;;
26014;SDS011;13793;55.388;37.844;2022-11-06T13:00:20;22.10;;;14.10;;
26014;SDS011;13793;55.388;37.844;2022-11-06T13:14:23;39.27;;;23.07;;
26014;SDS011;13793;55.388;37.844;2022-11-06T13:17:04;44.37;;;22.63;;
26014;SDS011;13793;55.388;37.844;2022-11-06T13:25:45;22.93;;;14.53;;
26014;SDS011;13793;55.388;37.844;2022-11-06T13:28:23;18.97;;;13.20;;
26014;SDS011;13793;55.388;37.844;2022-11-06T13:30:54;20.40;;;14.23;;
26014;SDS011;13793;55.388;37.844;2022-11-06T13:33:31;19.90;;;13.17;;
26014;SDS011;13793;55.388;37.844;2022-11-06T13:36:17;20.10;;;13.83;;
26014;SDS011;13793;55.388;37.844;2022-11-06T13:38:52;23.57;;;15.27;;
26014;SDS011;13793;55.388;37.844;2022-11-06T13:41:28;22.00;;;13.93;;
26014;SDS011;13793;55.388;37.844;2022-11-06T13:52:11;21.10;;;14.30;;
26014;SDS011;13793;55.388;37.844;2022-11-06T14:06:10;21.10;;;13.97;;
26014;SDS011;13793;55.388;37.844;2022-11-06T14:08:48;25.57;;;15.50;;
26014;SDS011;13793;55.388;37.844;2022-11-06T14:11:33;22.07;;;14.00;;
26014;SDS011;13793;55.388;37.844;2022-11-06T14:16:43;22.17;;;14.67;;
26014;SDS011;13793;55.388;37.844;2022-11-06T14:19:24;23.57;;;16.17;;
26014;SDS011;13793;55.388;37.844;2022-11-06T14:33:08;24.23;;;14.63;;
26014;SDS011;13793;55.388;37.844;2022-11-06T14:38:32;23.02;;;15.65;;
26014;SDS011;13793;55.388;37.844;2022-11-06T14:46:49;23.50;;;15.50;;
26014;SDS011;13793;55.388;37.844;2022-11-06T14:52:06;25.10;;;15.67;;
26014;SDS011;13793;55.388;37.844;2022-11-06T14:54:40;22.63;;;15.90;;
26014;SDS011;13793;55.388;37.844;2022-11-06T14:57:13;23.17;;;15.30;;
26014;SDS011;13793;55.388;37.844;2022-11-06T14:59:45;23.37;;;16.30;;
26014;SDS011;13793;55.388;37.844;2022-11-06T15:05:04;25.10;;;15.03;;
26014;SDS011;13793;55.388;37.844;2022-11-06T15:15:59;24.07;;;16.50;;
26014;SDS011;13793;55.388;37.844;2022-11-06T15:18:26;21.73;;;15.80;;
26014;SDS011;13793;55.388;37.844;2022-11-06T15:21:00;27.10;;;16.13;;
26014;SDS011;13793;55.388;37.844;2022-11-06T15:23:33;24.47;;;16.60;;
26014;SDS011;13793;55.388;37.844;2022-11-06T15:29:01;23.90;;;16.53;;
26014;SDS011;13793;55.388;37.844;2022-11-06T15:31:30;23.67;;;16.33;;
26014;SDS011;13793;55.388;37.844;2022-11-06T15:34:07;24.67;;;16.43;;
26014;SDS011;13793;55.388;37.844;2022-11-06T15:36:39;25.00;;;15.90;;
26014;SDS011;13793;55.388;37.844;2022-11-06T15:39:22;27.17;;;17.00;;
26014;SDS011;13793;55.388;37.844;2022-11-06T15:42:06;23.73;;;15.90;;
26014;SDS011;13793;55.388;37.844;2022-11-06T15:44:40;27.20;;;17.50;;
26014;SDS011;13793;55.388;37.844;2022-11-06T15:47:24;27.33;;;17.07;;
26014;SDS011;13793;55.388;37.844;2022-11-06T15:50:15;25.87;;;17.33;;
26014;SDS011;13793;55.388;37.844;2022-11-06T15:52:47;24.87;;;17.03;;
26014;SDS011;13793;55.388;37.844;2022-11-06T15:55:29;27.00;;;17.43;;
26014;SDS011;13793;55.388;37.844;2022-11-06T15:58:23;25.13;;;17.63;;
26014;SDS011;13793;55.388;37.844;2022-11-06T16:00:46;27.17;;;17.53;;
26014;SDS011;13793;55.388;37.844;2022-11-06T16:03:19;28.73;;;17.87;;
26014;SDS011;13793;55.388;37.844;2022-11-06T16:05:51;25.20;;;16.77;;
26014;SDS011;13793;55.388;37.844;2022-11-06T16:08:24;23.80;;;16.07;;
26014;SDS011;13793;55.388;37.844;2022-11-06T16:10:56;25.87;;;16.60;;
26014;SDS011;13793;55.388;37.844;2022-11-06T16:13:27;27.37;;;17.37;;
26014;SDS011;13793;55.388;37.844;2022-11-06T16:16:01;28.80;;;18.40;;
26014;SDS011;13793;55.388;37.844;2022-11-06T16:18:42;25.40;;;17.03;;
26014;SDS011;13793;55.388;37.844;2022-11-06T16:21:16;26.60;;;17.30;;
26014;SDS011;13793;55.388;37.844;2022-11-06T16:23:49;26.80;;;17.53;;
26014;SDS011;13793;55.388;37.844;2022-11-06T16:26:22;28.87;;;17.90;;
26014;SDS011;13793;55.388;37.844;2022-11-06T16:28:55;28.10;;;17.37;;
26014;SDS011;13793;55.388;37.844;2022-11-06T16:31:27;27.90;;;17.87;;
26014;SDS011;13793;55.388;37.844;2022-11-06T16:34:00;27.73;;;17.67;;
26014;SDS011;13793;55.388;37.844;2022-11-06T16:36:56;27.87;;;17.63;;
26014;SDS011;13793;55.388;37.844;2022-11-06T16:42:18;28.02;;;18.02;;
26014;SDS011;13793;55.388;37.844;2022-11-06T16:50:44;30.63;;;17.77;;
26014;SDS011;13793;55.388;37.844;2022-11-06T16:53:19;32.93;;;19.43;;
26014;SDS011;13793;55.388;37.844;2022-11-06T16:56:05;32.43;;;19.77;;
26014;SDS011;13793;55.388;37.844;2022-11-06T16:58:41;31.33;;;19.43;;
26014;SDS011;13793;55.388;37.844;2022-11-06T17:01:13;30.37;;;18.90;;
26014;SDS011;13793;55.388;37.844;2022-11-06T17:03:55;33.80;;;19.10;;
26014;SDS011;13793;55.388;37.844;2022-11-06T17:06:28;36.90;;;19.90;;
26014;SDS011;13793;55.388;37.844;2022-11-06T17:09:06;39.73;;;22.07;;
26014;SDS011;13793;55.388;37.844;2022-11-06T17:11:56;36.63;;;19.27;;
26014;SDS011;13793;55.388;37.844;2022-11-06T17:14:28;36.77;;;21.07;;
26014;SDS011;13793;55.388;37.844;2022-11-06T17:17:00;37.50;;;20.13;;